sensor_id;sensor_type;location;lat;lon;timestamp;P1;durP1;ratioP1;P2;durP2;ratioP2
65244;SDS011;51846;48.692;2.382;2023-09-19T00:01:07;7.15;;;2.15;;
65244;SDS011;51846;48.692;2.382;2023-09-19T00:03:34;6.18;;;1.85;;
65244;SDS011;51846;48.692;2.382;2023-09-19T00:06:00;5.32;;;1.75;;
65244;SDS011;51846;48.692;2.382;2023-09-19T00:08:26;6.18;;;1.58;;
65244;SDS011;51846;48.692;2.382;2023-09-19T00:10:52;5.95;;;1.67;;
65244;SDS011;51846;48.692;2.382;2023-09-19T00:13:19;6.50;;;1.50;;
65244;SDS011;51846;48.692;2.382;2023-09-19T00:15:46;6.03;;;1.60;;
65244;SDS011;51846;48.692;2.382;2023-09-19T00:18:16;8.73;;;2.08;;
65244;SDS011;51846;48.692;2.382;2023-09-19T00:20:46;6.38;;;1.45;;
65244;SDS011;51846;48.692;2.382;2023-09-19T00:23:16;7.53;;;1.63;;
65244;SDS011;51846;48.692;2.382;2023-09-19T00:25:42;9.20;;;1.85;;
65244;SDS011;51846;48.692;2.382;2023-09-19T00:28:07;8.07;;;1.73;;
65244;SDS011;51846;48.692;2.382;2023-09-19T00:30:33;4.85;;;1.55;;
65244;SDS011;51846;48.692;2.382;2023-09-19T00:32:59;7.60;;;1.60;;
65244;SDS011;51846;48.692;2.382;2023-09-19T00:35:26;8.02;;;1.88;;
65244;SDS011;51846;48.692;2.382;2023-09-19T00:37:52;7.03;;;1.63;;
65244;SDS011;51846;48.692;2.382;2023-09-19T00:40:18;5.07;;;1.50;;
65244;SDS011;51846;48.692;2.382;2023-09-19T00:42:44;6.05;;;1.63;;
65244;SDS011;51846;48.692;2.382;2023-09-19T00:45:11;6.22;;;1.88;;
65244;SDS011;51846;48.692;2.382;2023-09-19T00:47:40;9.43;;;1.80;;
65244;SDS011;51846;48.692;2.382;2023-09-19T00:50:08;6.97;;;1.70;;
65244;SDS011;51846;48.692;2.382;2023-09-19T00:52:36;6.68;;;1.70;;
65244;SDS011;51846;48.692;2.382;2023-09-19T00:55:07;6.03;;;1.55;;
65244;SDS011;51846;48.692;2.382;2023-09-19T00:57:34;6.38;;;1.40;;
65244;SDS011;51846;48.692;2.382;2023-09-19T01:00:00;7.18;;;1.67;;
65244;SDS011;51846;48.692;2.382;2023-09-19T01:02:32;5.68;;;1.80;;
65244;SDS011;51846;48.692;2.382;2023-09-19T01:04:58;5.63;;;1.80;;
65244;SDS011;51846;48.692;2.382;2023-09-19T01:07:24;6.55;;;1.48;;
65244;SDS011;51846;48.692;2.382;2023-09-19T01:09:49;5.80;;;1.65;;
65244;SDS011;51846;48.692;2.382;2023-09-19T01:12:17;6.07;;;1.52;;
65244;SDS011;51846;48.692;2.382;2023-09-19T01:14:54;8.43;;;1.80;;
65244;SDS011;51846;48.692;2.382;2023-09-19T01:17:34;8.80;;;1.70;;
65244;SDS011;51846;48.692;2.382;2023-09-19T01:20:24;5.47;;;1.60;;
65244;SDS011;51846;48.692;2.382;2023-09-19T01:25:56;6.93;;;1.60;;
65244;SDS011;51846;48.692;2.382;2023-09-19T01:28:32;5.45;;;1.60;;
65244;SDS011;51846;48.692;2.382;2023-09-19T01:31:06;6.47;;;1.70;;
65244;SDS011;51846;48.692;2.382;2023-09-19T01:36:24;6.32;;;1.63;;
65244;SDS011;51846;48.692;2.382;2023-09-19T01:38:54;8.20;;;1.80;;
65244;SDS011;51846;48.692;2.382;2023-09-19T01:41:38;5.38;;;1.80;;
65244;SDS011;51846;48.692;2.382;2023-09-19T01:44:15;8.57;;;1.73;;
65244;SDS011;51846;48.692;2.382;2023-09-19T01:49:18;10.38;;;1.70;;
65244;SDS011;51846;48.692;2.382;2023-09-19T01:52:09;8.95;;;1.75;;
65244;SDS011;51846;48.692;2.382;2023-09-19T01:54:48;5.55;;;1.73;;
65244;SDS011;51846;48.692;2.382;2023-09-19T01:59:52;5.07;;;1.60;;
65244;SDS011;51846;48.692;2.382;2023-09-19T02:02:24;7.50;;;1.80;;
65244;SDS011;51846;48.692;2.382;2023-09-19T02:04:50;6.18;;;1.90;;
65244;SDS011;51846;48.692;2.382;2023-09-19T02:07:16;7.07;;;1.60;;
65244;SDS011;51846;48.692;2.382;2023-09-19T02:09:42;7.93;;;1.67;;
65244;SDS011;51846;48.692;2.382;2023-09-19T02:12:08;5.85;;;1.65;;
65244;SDS011;51846;48.692;2.382;2023-09-19T02:14:34;5.75;;;1.63;;
65244;SDS011;51846;48.692;2.382;2023-09-19T02:17:01;5.28;;;1.60;;
65244;SDS011;51846;48.692;2.382;2023-09-19T02:19:27;4.88;;;1.70;;
65244;SDS011;51846;48.692;2.382;2023-09-19T02:21:54;8.80;;;1.80;;
65244;SDS011;51846;48.692;2.382;2023-09-19T02:24:20;8.93;;;1.80;;
65244;SDS011;51846;48.692;2.382;2023-09-19T02:26:45;11.88;;;2.00;;
65244;SDS011;51846;48.692;2.382;2023-09-19T02:29:11;6.57;;;1.95;;
65244;SDS011;51846;48.692;2.382;2023-09-19T02:31:38;8.15;;;1.70;;
65244;SDS011;51846;48.692;2.382;2023-09-19T02:34:03;8.07;;;1.63;;
65244;SDS011;51846;48.692;2.382;2023-09-19T02:36:30;5.85;;;1.70;;
65244;SDS011;51846;48.692;2.382;2023-09-19T02:38:56;6.93;;;1.92;;
65244;SDS011;51846;48.692;2.382;2023-09-19T02:41:21;6.40;;;2.13;;
65244;SDS011;51846;48.692;2.382;2023-09-19T02:43:46;11.18;;;2.03;;
65244;SDS011;51846;48.692;2.382;2023-09-19T02:46:12;6.38;;;1.70;;
65244;SDS011;51846;48.692;2.382;2023-09-19T02:48:37;6.95;;;1.90;;
65244;SDS011;51846;48.692;2.382;2023-09-19T02:51:03;7.68;;;1.80;;
65244;SDS011;51846;48.692;2.382;2023-09-19T02:53:29;8.55;;;1.95;;
65244;SDS011;51846;48.692;2.382;2023-09-19T02:55:56;6.57;;;1.60;;
65244;SDS011;51846;48.692;2.382;2023-09-19T02:58:21;7.40;;;1.60;;
65244;SDS011;51846;48.692;2.382;2023-09-19T03:00:48;7.15;;;1.90;;
65244;SDS011;51846;48.692;2.382;2023-09-19T03:03:16;8.20;;;1.67;;
65244;SDS011;51846;48.692;2.382;2023-09-19T03:05:42;5.90;;;1.80;;
65244;SDS011;51846;48.692;2.382;2023-09-19T03:08:12;7.05;;;1.80;;
65244;SDS011;51846;48.692;2.382;2023-09-19T03:10:40;9.88;;;1.70;;
65244;SDS011;51846;48.692;2.382;2023-09-19T03:13:05;7.05;;;1.92;;
65244;SDS011;51846;48.692;2.382;2023-09-19T03:15:34;9.30;;;2.35;;
65244;SDS011;51846;48.692;2.382;2023-09-19T03:18:03;8.55;;;1.75;;
65244;SDS011;51846;48.692;2.382;2023-09-19T03:20:29;11.25;;;1.98;;
65244;SDS011;51846;48.692;2.382;2023-09-19T03:22:54;7.10;;;1.90;;
65244;SDS011;51846;48.692;2.382;2023-09-19T03:25:20;6.97;;;1.70;;
65244;SDS011;51846;48.692;2.382;2023-09-19T03:27:47;7.82;;;2.08;;
65244;SDS011;51846;48.692;2.382;2023-09-19T03:30:13;9.05;;;2.13;;
65244;SDS011;51846;48.692;2.382;2023-09-19T03:32:45;11.18;;;2.28;;
65244;SDS011;51846;48.692;2.382;2023-09-19T03:35:12;6.22;;;2.00;;
65244;SDS011;51846;48.692;2.382;2023-09-19T03:37:39;8.98;;;2.38;;
65244;SDS011;51846;48.692;2.382;2023-09-19T03:40:06;8.45;;;1.92;;
65244;SDS011;51846;48.692;2.382;2023-09-19T03:42:32;15.55;;;2.70;;
65244;SDS011;51846;48.692;2.382;2023-09-19T03:44:58;11.00;;;2.10;;
65244;SDS011;51846;48.692;2.382;2023-09-19T03:47:24;9.35;;;1.98;;
65244;SDS011;51846;48.692;2.382;2023-09-19T03:49:50;7.57;;;1.80;;
65244;SDS011;51846;48.692;2.382;2023-09-19T03:52:15;8.55;;;2.05;;
65244;SDS011;51846;48.692;2.382;2023-09-19T03:54:41;10.00;;;1.80;;
65244;SDS011;51846;48.692;2.382;2023-09-19T03:57:06;10.65;;;2.10;;
65244;SDS011;51846;48.692;2.382;2023-09-19T03:59:32;8.52;;;1.92;;
65244;SDS011;51846;48.692;2.382;2023-09-19T04:01:57;10.70;;;2.10;;
65244;SDS011;51846;48.692;2.382;2023-09-19T04:04:23;7.10;;;1.80;;
65244;SDS011;51846;48.692;2.382;2023-09-19T04:06:50;8.00;;;2.22;;
65244;SDS011;51846;48.692;2.382;2023-09-19T04:09:16;6.97;;;2.20;;
65244;SDS011;51846;48.692;2.382;2023-09-19T04:11:41;7.53;;;1.80;;
65244;SDS011;51846;48.692;2.382;2023-09-19T04:14:06;9.77;;;2.30;;
65244;SDS011;51846;48.692;2.382;2023-09-19T04:16:32;11.43;;;2.40;;
65244;SDS011;51846;48.692;2.382;2023-09-19T04:18:57;12.75;;;2.08;;
65244;SDS011;51846;48.692;2.382;2023-09-19T04:21:22;12.93;;;1.83;;
65244;SDS011;51846;48.692;2.382;2023-09-19T04:23:48;11.70;;;2.30;;
65244;SDS011;51846;48.692;2.382;2023-09-19T04:26:13;8.05;;;2.03;;
65244;SDS011;51846;48.692;2.382;2023-09-19T04:28:41;10.45;;;2.03;;
65244;SDS011;51846;48.692;2.382;2023-09-19T04:31:08;9.05;;;2.20;;
65244;SDS011;51846;48.692;2.382;2023-09-19T04:33:35;8.25;;;2.10;;
65244;SDS011;51846;48.692;2.382;2023-09-19T04:36:00;10.52;;;1.98;;
65244;SDS011;51846;48.692;2.382;2023-09-19T04:38:28;10.85;;;1.90;;
65244;SDS011;51846;48.692;2.382;2023-09-19T04:40:57;9.35;;;1.80;;
65244;SDS011;51846;48.692;2.382;2023-09-19T04:43:24;8.80;;;2.00;;
65244;SDS011;51846;48.692;2.382;2023-09-19T04:45:49;7.45;;;1.95;;
65244;SDS011;51846;48.692;2.382;2023-09-19T04:48:16;9.27;;;2.42;;
65244;SDS011;51846;48.692;2.382;2023-09-19T04:50:41;12.25;;;2.20;;
65244;SDS011;51846;48.692;2.382;2023-09-19T04:53:06;11.05;;;2.35;;
65244;SDS011;51846;48.692;2.382;2023-09-19T04:55:32;12.15;;;2.30;;
65244;SDS011;51846;48.692;2.382;2023-09-19T04:57:57;9.18;;;2.20;;
65244;SDS011;51846;48.692;2.382;2023-09-19T05:00:23;11.10;;;2.10;;
65244;SDS011;51846;48.692;2.382;2023-09-19T05:02:50;7.40;;;2.38;;
65244;SDS011;51846;48.692;2.382;2023-09-19T05:05:16;8.77;;;2.08;;
65244;SDS011;51846;48.692;2.382;2023-09-19T05:07:43;8.75;;;2.08;;
65244;SDS011;51846;48.692;2.382;2023-09-19T05:10:09;6.60;;;2.10;;
65244;SDS011;51846;48.692;2.382;2023-09-19T05:12:36;15.32;;;2.40;;
65244;SDS011;51846;48.692;2.382;2023-09-19T05:15:02;12.30;;;2.20;;
65244;SDS011;51846;48.692;2.382;2023-09-19T05:17:29;15.98;;;2.60;;
65244;SDS011;51846;48.692;2.382;2023-09-19T05:19:54;10.52;;;2.17;;
65244;SDS011;51846;48.692;2.382;2023-09-19T05:22:20;9.52;;;2.20;;
65244;SDS011;51846;48.692;2.382;2023-09-19T05:24:45;9.00;;;2.25;;
65244;SDS011;51846;48.692;2.382;2023-09-19T05:27:16;9.90;;;2.30;;
65244;SDS011;51846;48.692;2.382;2023-09-19T05:29:45;12.20;;;2.08;;
65244;SDS011;51846;48.692;2.382;2023-09-19T05:32:10;10.82;;;2.35;;
65244;SDS011;51846;48.692;2.382;2023-09-19T05:34:36;11.85;;;2.20;;
65244;SDS011;51846;48.692;2.382;2023-09-19T05:37:03;13.65;;;2.30;;
65244;SDS011;51846;48.692;2.382;2023-09-19T05:39:28;11.63;;;2.67;;
65244;SDS011;51846;48.692;2.382;2023-09-19T05:41:53;11.07;;;2.20;;
65244;SDS011;51846;48.692;2.382;2023-09-19T05:44:20;14.20;;;3.05;;
65244;SDS011;51846;48.692;2.382;2023-09-19T05:46:45;11.10;;;2.40;;
65244;SDS011;51846;48.692;2.382;2023-09-19T05:49:13;9.98;;;2.17;;
65244;SDS011;51846;48.692;2.382;2023-09-19T05:51:38;11.80;;;2.95;;
65244;SDS011;51846;48.692;2.382;2023-09-19T05:54:04;9.88;;;2.25;;
65244;SDS011;51846;48.692;2.382;2023-09-19T05:56:30;12.40;;;2.60;;
65244;SDS011;51846;48.692;2.382;2023-09-19T05:58:56;12.15;;;2.03;;
65244;SDS011;51846;48.692;2.382;2023-09-19T06:01:21;12.43;;;2.30;;
65244;SDS011;51846;48.692;2.382;2023-09-19T06:03:47;12.68;;;2.55;;
65244;SDS011;51846;48.692;2.382;2023-09-19T06:06:13;13.70;;;2.83;;
65244;SDS011;51846;48.692;2.382;2023-09-19T06:08:39;10.00;;;2.10;;
65244;SDS011;51846;48.692;2.382;2023-09-19T06:11:04;8.75;;;2.50;;
65244;SDS011;51846;48.692;2.382;2023-09-19T06:13:34;10.07;;;2.20;;
65244;SDS011;51846;48.692;2.382;2023-09-19T06:15:59;10.82;;;2.03;;
65244;SDS011;51846;48.692;2.382;2023-09-19T06:18:29;14.05;;;2.60;;
65244;SDS011;51846;48.692;2.382;2023-09-19T06:20:58;10.95;;;2.00;;
65244;SDS011;51846;48.692;2.382;2023-09-19T06:23:24;12.63;;;2.25;;
65244;SDS011;51846;48.692;2.382;2023-09-19T06:25:51;12.25;;;2.30;;
65244;SDS011;51846;48.692;2.382;2023-09-19T06:28:18;13.60;;;2.03;;
65244;SDS011;51846;48.692;2.382;2023-09-19T06:30:48;11.73;;;2.40;;
65244;SDS011;51846;48.692;2.382;2023-09-19T06:33:14;9.13;;;2.33;;
65244;SDS011;51846;48.692;2.382;2023-09-19T06:35:40;8.43;;;1.95;;
65244;SDS011;51846;48.692;2.382;2023-09-19T06:38:06;10.85;;;2.60;;
65244;SDS011;51846;48.692;2.382;2023-09-19T06:40:33;15.15;;;2.35;;
65244;SDS011;51846;48.692;2.382;2023-09-19T06:42:59;8.27;;;2.22;;
65244;SDS011;51846;48.692;2.382;2023-09-19T06:45:27;8.85;;;1.90;;
65244;SDS011;51846;48.692;2.382;2023-09-19T06:47:53;10.38;;;2.15;;
65244;SDS011;51846;48.692;2.382;2023-09-19T06:50:22;7.47;;;2.00;;
65244;SDS011;51846;48.692;2.382;2023-09-19T06:52:52;13.02;;;2.00;;
65244;SDS011;51846;48.692;2.382;2023-09-19T06:55:19;11.75;;;2.05;;
65244;SDS011;51846;48.692;2.382;2023-09-19T06:57:46;11.98;;;2.28;;
65244;SDS011;51846;48.692;2.382;2023-09-19T07:00:12;5.95;;;1.80;;
65244;SDS011;51846;48.692;2.382;2023-09-19T07:02:44;12.57;;;2.63;;
65244;SDS011;51846;48.692;2.382;2023-09-19T07:05:09;10.23;;;1.98;;
65244;SDS011;51846;48.692;2.382;2023-09-19T07:07:35;12.05;;;2.05;;
65244;SDS011;51846;48.692;2.382;2023-09-19T07:10:01;7.82;;;1.95;;
65244;SDS011;51846;48.692;2.382;2023-09-19T07:12:27;8.32;;;2.00;;
65244;SDS011;51846;48.692;2.382;2023-09-19T07:14:52;13.05;;;2.10;;
65244;SDS011;51846;48.692;2.382;2023-09-19T07:17:18;11.18;;;2.13;;
65244;SDS011;51846;48.692;2.382;2023-09-19T07:19:44;16.17;;;2.17;;
65244;SDS011;51846;48.692;2.382;2023-09-19T07:22:10;10.63;;;2.00;;
65244;SDS011;51846;48.692;2.382;2023-09-19T07:24:35;16.10;;;2.17;;
65244;SDS011;51846;48.692;2.382;2023-09-19T07:27:01;10.77;;;2.10;;
65244;SDS011;51846;48.692;2.382;2023-09-19T07:29:27;12.80;;;2.13;;
65244;SDS011;51846;48.692;2.382;2023-09-19T07:31:52;8.52;;;1.92;;
65244;SDS011;51846;48.692;2.382;2023-09-19T07:34:20;13.00;;;2.20;;
65244;SDS011;51846;48.692;2.382;2023-09-19T07:36:48;8.07;;;1.80;;
65244;SDS011;51846;48.692;2.382;2023-09-19T07:39:13;10.82;;;2.10;;
65244;SDS011;51846;48.692;2.382;2023-09-19T07:41:38;7.93;;;1.80;;
65244;SDS011;51846;48.692;2.382;2023-09-19T07:44:04;11.18;;;1.98;;
65244;SDS011;51846;48.692;2.382;2023-09-19T07:46:30;10.93;;;2.10;;
65244;SDS011;51846;48.692;2.382;2023-09-19T07:48:56;8.75;;;1.73;;
65244;SDS011;51846;48.692;2.382;2023-09-19T07:51:22;9.63;;;2.10;;
65244;SDS011;51846;48.692;2.382;2023-09-19T07:53:47;10.13;;;2.25;;
65244;SDS011;51846;48.692;2.382;2023-09-19T07:56:13;9.15;;;2.17;;
65244;SDS011;51846;48.692;2.382;2023-09-19T07:58:39;11.07;;;1.90;;
65244;SDS011;51846;48.692;2.382;2023-09-19T08:01:06;7.82;;;2.10;;
65244;SDS011;51846;48.692;2.382;2023-09-19T08:03:33;8.45;;;1.95;;
65244;SDS011;51846;48.692;2.382;2023-09-19T08:06:05;7.97;;;1.77;;
65244;SDS011;51846;48.692;2.382;2023-09-19T08:08:32;9.13;;;2.50;;
65244;SDS011;51846;48.692;2.382;2023-09-19T08:11:02;8.35;;;1.95;;
65244;SDS011;51846;48.692;2.382;2023-09-19T08:13:35;9.57;;;1.92;;
65244;SDS011;51846;48.692;2.382;2023-09-19T08:16:00;6.97;;;1.85;;
65244;SDS011;51846;48.692;2.382;2023-09-19T08:18:26;10.70;;;2.10;;
65244;SDS011;51846;48.692;2.382;2023-09-19T08:20:54;9.05;;;1.90;;
65244;SDS011;51846;48.692;2.382;2023-09-19T08:23:20;7.70;;;1.83;;
65244;SDS011;51846;48.692;2.382;2023-09-19T08:25:46;9.13;;;2.08;;
65244;SDS011;51846;48.692;2.382;2023-09-19T08:28:12;11.27;;;2.60;;
65244;SDS011;51846;48.692;2.382;2023-09-19T08:30:42;9.27;;;1.70;;
65244;SDS011;51846;48.692;2.382;2023-09-19T08:33:08;11.07;;;1.90;;
65244;SDS011;51846;48.692;2.382;2023-09-19T08:35:33;10.32;;;1.92;;
65244;SDS011;51846;48.692;2.382;2023-09-19T08:37:58;7.18;;;1.63;;
65244;SDS011;51846;48.692;2.382;2023-09-19T08:40:29;7.90;;;1.60;;
65244;SDS011;51846;48.692;2.382;2023-09-19T08:42:58;9.40;;;1.92;;
65244;SDS011;51846;48.692;2.382;2023-09-19T08:45:25;6.80;;;1.65;;
65244;SDS011;51846;48.692;2.382;2023-09-19T08:50:33;6.70;;;1.75;;
65244;SDS011;51846;48.692;2.382;2023-09-19T08:53:06;9.00;;;1.98;;
65244;SDS011;51846;48.692;2.382;2023-09-19T08:55:48;9.90;;;1.70;;
65244;SDS011;51846;48.692;2.382;2023-09-19T08:58:19;7.18;;;1.77;;
65244;SDS011;51846;48.692;2.382;2023-09-19T09:00:49;6.63;;;1.80;;
65244;SDS011;51846;48.692;2.382;2023-09-19T09:03:26;7.40;;;1.60;;
65244;SDS011;51846;48.692;2.382;2023-09-19T09:05:57;5.82;;;1.85;;
65244;SDS011;51846;48.692;2.382;2023-09-19T09:08:23;8.40;;;1.73;;
65244;SDS011;51846;48.692;2.382;2023-09-19T09:10:50;8.57;;;1.73;;
65244;SDS011;51846;48.692;2.382;2023-09-19T09:13:16;6.05;;;1.73;;
65244;SDS011;51846;48.692;2.382;2023-09-19T09:15:42;9.10;;;1.92;;
65244;SDS011;51846;48.692;2.382;2023-09-19T09:18:09;5.85;;;1.45;;
65244;SDS011;51846;48.692;2.382;2023-09-19T09:20:36;10.38;;;1.85;;
65244;SDS011;51846;48.692;2.382;2023-09-19T09:23:01;11.52;;;1.88;;
65244;SDS011;51846;48.692;2.382;2023-09-19T09:25:49;6.82;;;1.50;;
65244;SDS011;51846;48.692;2.382;2023-09-19T09:28:20;10.02;;;1.65;;
65244;SDS011;51846;48.692;2.382;2023-09-19T09:30:47;6.35;;;1.50;;
65244;SDS011;51846;48.692;2.382;2023-09-19T09:33:13;6.93;;;1.70;;
65244;SDS011;51846;48.692;2.382;2023-09-19T09:35:48;6.05;;;1.60;;
65244;SDS011;51846;48.692;2.382;2023-09-19T09:38:17;6.60;;;1.55;;
65244;SDS011;51846;48.692;2.382;2023-09-19T09:40:45;6.95;;;1.85;;
65244;SDS011;51846;48.692;2.382;2023-09-19T09:51:36;10.10;;;1.70;;
65244;SDS011;51846;48.692;2.382;2023-09-19T09:54:10;6.75;;;1.65;;
65244;SDS011;51846;48.692;2.382;2023-09-19T09:56:51;5.45;;;1.65;;
65244;SDS011;51846;48.692;2.382;2023-09-19T09:59:32;7.15;;;2.10;;
65244;SDS011;51846;48.692;2.382;2023-09-19T10:02:36;6.28;;;1.63;;
65244;SDS011;51846;48.692;2.382;2023-09-19T10:08:11;8.13;;;1.50;;
65244;SDS011;51846;48.692;2.382;2023-09-19T10:10:38;5.90;;;1.60;;
65244;SDS011;51846;48.692;2.382;2023-09-19T10:13:08;6.65;;;1.50;;
65244;SDS011;51846;48.692;2.382;2023-09-19T10:15:38;7.40;;;1.67;;
65244;SDS011;51846;48.692;2.382;2023-09-19T10:18:11;6.53;;;1.50;;
65244;SDS011;51846;48.692;2.382;2023-09-19T10:20:42;6.72;;;1.58;;
65244;SDS011;51846;48.692;2.382;2023-09-19T10:23:10;5.63;;;1.50;;
65244;SDS011;51846;48.692;2.382;2023-09-19T10:25:38;4.25;;;1.30;;
65244;SDS011;51846;48.692;2.382;2023-09-19T10:28:08;4.82;;;1.65;;
65244;SDS011;51846;48.692;2.382;2023-09-19T10:30:38;5.05;;;1.88;;
65244;SDS011;51846;48.692;2.382;2023-09-19T10:33:08;4.32;;;1.30;;
65244;SDS011;51846;48.692;2.382;2023-09-19T10:35:34;7.40;;;1.58;;
65244;SDS011;51846;48.692;2.382;2023-09-19T10:38:05;5.70;;;1.63;;
65244;SDS011;51846;48.692;2.382;2023-09-19T10:40:32;6.55;;;1.60;;
65244;SDS011;51846;48.692;2.382;2023-09-19T10:43:04;4.47;;;1.45;;
65244;SDS011;51846;48.692;2.382;2023-09-19T10:45:31;5.75;;;1.40;;
65244;SDS011;51846;48.692;2.382;2023-09-19T10:48:01;4.57;;;1.40;;
65244;SDS011;51846;48.692;2.382;2023-09-19T10:50:36;5.97;;;1.58;;
65244;SDS011;51846;48.692;2.382;2023-09-19T10:53:24;5.53;;;1.73;;
65244;SDS011;51846;48.692;2.382;2023-09-19T10:55:53;3.33;;;1.27;;
65244;SDS011;51846;48.692;2.382;2023-09-19T10:58:29;4.80;;;1.50;;
65244;SDS011;51846;48.692;2.382;2023-09-19T11:01:02;7.95;;;1.73;;
65244;SDS011;51846;48.692;2.382;2023-09-19T11:03:43;4.45;;;1.38;;
65244;SDS011;51846;48.692;2.382;2023-09-19T11:06:10;3.72;;;1.35;;
65244;SDS011;51846;48.692;2.382;2023-09-19T11:30:41;5.00;;;1.30;;
65244;SDS011;51846;48.692;2.382;2023-09-19T11:43:51;5.35;;;1.58;;
65244;SDS011;51846;48.692;2.382;2023-09-19T11:46:20;9.75;;;1.50;;
65244;SDS011;51846;48.692;2.382;2023-09-19T11:48:47;5.82;;;1.73;;
65244;SDS011;51846;48.692;2.382;2023-09-19T11:51:15;6.38;;;1.92;;
65244;SDS011;51846;48.692;2.382;2023-09-19T11:53:48;5.70;;;1.75;;
65244;SDS011;51846;48.692;2.382;2023-09-19T11:56:15;4.32;;;1.60;;
65244;SDS011;51846;48.692;2.382;2023-09-19T11:58:43;3.85;;;1.50;;
65244;SDS011;51846;48.692;2.382;2023-09-19T12:01:13;5.38;;;1.65;;
65244;SDS011;51846;48.692;2.382;2023-09-19T12:03:45;3.63;;;1.58;;
65244;SDS011;51846;48.692;2.382;2023-09-19T12:06:15;6.13;;;1.75;;
65244;SDS011;51846;48.692;2.382;2023-09-19T12:08:42;4.47;;;1.50;;
65244;SDS011;51846;48.692;2.382;2023-09-19T12:11:12;4.93;;;1.67;;
65244;SDS011;51846;48.692;2.382;2023-09-19T12:13:45;9.32;;;2.05;;
65244;SDS011;51846;48.692;2.382;2023-09-19T12:16:20;7.13;;;1.70;;
65244;SDS011;51846;48.692;2.382;2023-09-19T12:18:47;4.90;;;1.48;;
65244;SDS011;51846;48.692;2.382;2023-09-19T12:21:30;5.45;;;1.92;;
65244;SDS011;51846;48.692;2.382;2023-09-19T12:26:37;7.05;;;1.80;;
65244;SDS011;51846;48.692;2.382;2023-09-19T12:29:10;5.65;;;1.70;;
65244;SDS011;51846;48.692;2.382;2023-09-19T12:31:46;7.50;;;1.77;;
65244;SDS011;51846;48.692;2.382;2023-09-19T12:34:16;5.30;;;1.67;;
65244;SDS011;51846;48.692;2.382;2023-09-19T12:36:44;5.53;;;1.73;;
65244;SDS011;51846;48.692;2.382;2023-09-19T12:39:10;4.75;;;1.60;;
65244;SDS011;51846;48.692;2.382;2023-09-19T12:41:36;7.80;;;1.80;;
65244;SDS011;51846;48.692;2.382;2023-09-19T12:44:03;3.42;;;1.50;;
65244;SDS011;51846;48.692;2.382;2023-09-19T12:46:34;4.70;;;1.60;;
65244;SDS011;51846;48.692;2.382;2023-09-19T12:49:17;7.63;;;1.90;;
65244;SDS011;51846;48.692;2.382;2023-09-19T12:51:43;11.48;;;2.10;;
65244;SDS011;51846;48.692;2.382;2023-09-19T12:54:10;5.13;;;1.77;;
65244;SDS011;51846;48.692;2.382;2023-09-19T12:56:39;7.47;;;1.60;;
65244;SDS011;51846;48.692;2.382;2023-09-19T12:59:14;8.82;;;2.20;;
65244;SDS011;51846;48.692;2.382;2023-09-19T13:01:43;5.10;;;1.60;;
65244;SDS011;51846;48.692;2.382;2023-09-19T13:04:21;6.10;;;1.75;;
65244;SDS011;51846;48.692;2.382;2023-09-19T13:06:55;4.25;;;1.63;;
65244;SDS011;51846;48.692;2.382;2023-09-19T13:09:26;6.63;;;1.90;;
65244;SDS011;51846;48.692;2.382;2023-09-19T13:11:59;4.72;;;1.70;;
65244;SDS011;51846;48.692;2.382;2023-09-19T13:14:28;6.50;;;1.65;;
65244;SDS011;51846;48.692;2.382;2023-09-19T13:22:44;5.22;;;1.73;;
65244;SDS011;51846;48.692;2.382;2023-09-19T13:25:14;8.30;;;1.80;;
65244;SDS011;51846;48.692;2.382;2023-09-19T13:27:45;4.68;;;1.60;;
65244;SDS011;51846;48.692;2.382;2023-09-19T13:30:19;5.53;;;1.70;;
65244;SDS011;51846;48.692;2.382;2023-09-19T13:32:47;7.60;;;1.50;;
65244;SDS011;51846;48.692;2.382;2023-09-19T13:35:13;6.50;;;1.48;;
65244;SDS011;51846;48.692;2.382;2023-09-19T13:37:40;4.90;;;1.40;;
65244;SDS011;51846;48.692;2.382;2023-09-19T13:40:12;4.78;;;1.48;;
65244;SDS011;51846;48.692;2.382;2023-09-19T13:42:38;7.07;;;1.80;;
65244;SDS011;51846;48.692;2.382;2023-09-19T13:45:05;6.18;;;1.48;;
65244;SDS011;51846;48.692;2.382;2023-09-19T13:47:31;8.02;;;1.60;;
65244;SDS011;51846;48.692;2.382;2023-09-19T13:49:57;6.10;;;1.65;;
65244;SDS011;51846;48.692;2.382;2023-09-19T13:52:23;4.95;;;1.55;;
65244;SDS011;51846;48.692;2.382;2023-09-19T13:54:52;7.00;;;1.70;;
65244;SDS011;51846;48.692;2.382;2023-09-19T13:57:26;5.50;;;1.58;;
65244;SDS011;51846;48.692;2.382;2023-09-19T13:59:52;5.82;;;1.48;;
65244;SDS011;51846;48.692;2.382;2023-09-19T14:02:21;7.15;;;1.80;;
65244;SDS011;51846;48.692;2.382;2023-09-19T14:04:50;6.10;;;1.50;;
65244;SDS011;51846;48.692;2.382;2023-09-19T14:07:16;5.95;;;1.50;;
65244;SDS011;51846;48.692;2.382;2023-09-19T14:09:42;4.90;;;1.40;;
65244;SDS011;51846;48.692;2.382;2023-09-19T14:12:08;6.63;;;1.60;;
65244;SDS011;51846;48.692;2.382;2023-09-19T14:14:34;7.75;;;1.77;;
65244;SDS011;51846;48.692;2.382;2023-09-19T14:16:59;4.65;;;1.52;;
65244;SDS011;51846;48.692;2.382;2023-09-19T14:19:27;5.95;;;1.88;;
65244;SDS011;51846;48.692;2.382;2023-09-19T14:21:53;4.45;;;1.52;;
65244;SDS011;51846;48.692;2.382;2023-09-19T14:24:21;3.30;;;1.50;;
65244;SDS011;51846;48.692;2.382;2023-09-19T14:26:47;8.65;;;1.90;;
65244;SDS011;51846;48.692;2.382;2023-09-19T14:29:14;3.72;;;1.80;;
65244;SDS011;51846;48.692;2.382;2023-09-19T14:31:40;4.63;;;1.60;;
65244;SDS011;51846;48.692;2.382;2023-09-19T14:34:06;7.05;;;1.75;;
65244;SDS011;51846;48.692;2.382;2023-09-19T14:36:32;6.05;;;1.50;;
65244;SDS011;51846;48.692;2.382;2023-09-19T14:38:58;6.38;;;1.60;;
65244;SDS011;51846;48.692;2.382;2023-09-19T14:41:24;7.03;;;1.70;;
65244;SDS011;51846;48.692;2.382;2023-09-19T14:43:50;7.88;;;1.67;;
65244;SDS011;51846;48.692;2.382;2023-09-19T14:46:20;7.13;;;1.70;;
65244;SDS011;51846;48.692;2.382;2023-09-19T14:48:46;5.43;;;1.70;;
65244;SDS011;51846;48.692;2.382;2023-09-19T14:51:12;8.30;;;1.50;;
65244;SDS011;51846;48.692;2.382;2023-09-19T14:53:38;5.15;;;1.60;;
65244;SDS011;51846;48.692;2.382;2023-09-19T14:56:05;8.07;;;1.90;;
65244;SDS011;51846;48.692;2.382;2023-09-19T14:58:32;4.45;;;1.40;;
65244;SDS011;51846;48.692;2.382;2023-09-19T15:01:12;7.03;;;1.70;;
65244;SDS011;51846;48.692;2.382;2023-09-19T15:03:38;6.13;;;1.70;;
65244;SDS011;51846;48.692;2.382;2023-09-19T15:06:09;4.05;;;1.50;;
65244;SDS011;51846;48.692;2.382;2023-09-19T15:08:39;7.20;;;1.70;;
65244;SDS011;51846;48.692;2.382;2023-09-19T15:11:05;5.70;;;1.60;;
65244;SDS011;51846;48.692;2.382;2023-09-19T15:13:34;6.43;;;1.77;;
65244;SDS011;51846;48.692;2.382;2023-09-19T15:16:02;3.83;;;1.60;;
65244;SDS011;51846;48.692;2.382;2023-09-19T15:18:30;4.30;;;1.42;;
65244;SDS011;51846;48.692;2.382;2023-09-19T15:20:56;6.15;;;1.60;;
65244;SDS011;51846;48.692;2.382;2023-09-19T15:23:22;6.20;;;1.60;;
65244;SDS011;51846;48.692;2.382;2023-09-19T15:25:48;4.13;;;1.52;;
65244;SDS011;51846;48.692;2.382;2023-09-19T15:28:14;4.38;;;1.48;;
65244;SDS011;51846;48.692;2.382;2023-09-19T15:30:43;4.53;;;1.67;;
65244;SDS011;51846;48.692;2.382;2023-09-19T15:33:08;4.70;;;1.50;;
65244;SDS011;51846;48.692;2.382;2023-09-19T15:35:34;4.85;;;1.65;;
65244;SDS011;51846;48.692;2.382;2023-09-19T15:38:01;5.75;;;1.90;;
65244;SDS011;51846;48.692;2.382;2023-09-19T15:40:27;6.15;;;1.73;;
65244;SDS011;51846;48.692;2.382;2023-09-19T15:42:54;7.15;;;2.47;;
65244;SDS011;51846;48.692;2.382;2023-09-19T15:45:21;6.38;;;2.30;;
65244;SDS011;51846;48.692;2.382;2023-09-19T15:47:46;4.90;;;1.98;;
65244;SDS011;51846;48.692;2.382;2023-09-19T15:50:11;6.38;;;1.90;;
65244;SDS011;51846;48.692;2.382;2023-09-19T15:52:41;6.80;;;1.80;;
65244;SDS011;51846;48.692;2.382;2023-09-19T15:55:07;6.45;;;1.70;;
65244;SDS011;51846;48.692;2.382;2023-09-19T15:57:34;8.63;;;1.50;;